Time;durP1;ratioP1;P1;durP2;ratioP2;P2;SDS_P1;SDS_P2;PMS_P1;PMS_P2;Temp;Humidity;BMP_temperature;BMP_pressure;BME280_temperature;BME280_humidity;BME280_pressure;Samples;Min_cycle;Max_cycle;Signal;HPM_P1;HPM_P2
2022/06/21 00:01:13;;;;;;;14.40;7.18;;;;;;;;;;5097654;28;20044;-68
2022/06/21 00:03:40;;;;;;;11.38;6.93;;;;;;;;;;5097427;28;20483;-67
2022/06/21 00:06:06;;;;;;;13.93;7.60;;;;;;;;;;5097228;28;20093;-68
2022/06/21 00:08:34;;;;;;;20.67;7.55;;;;;;;;;;5096815;28;20047;-68
2022/06/21 00:11:00;;;;;;;14.73;7.38;;;;;;;;;;5097526;28;20119;-67
2022/06/21 00:13:31;;;;;;;15.93;7.30;;;;;;;;;;5097382;28;20047;-67
2022/06/21 00:16:02;;;;;;;13.10;7.47;;;;;;;;;;5097243;28;20044;-68
2022/06/21 00:18:29;;;;;;;11.57;7.85;;;;;;;;;;5097062;28;20073;-68
2022/06/21 00:20:55;;;;;;;11.73;7.60;;;;;;;;;;5097311;28;20088;-67
2022/06/21 00:23:29;;;;;;;13.45;7.75;;;;;;;;;;5096699;28;20035;-68
2022/06/21 00:25:56;;;;;;;15.18;7.55;;;;;;;;;;5096676;28;20048;-68
2022/06/21 00:28:22;;;;;;;16.38;7.43;;;;;;;;;;5096191;28;20036;-68
2022/06/21 00:30:49;;;;;;;13.60;8.05;;;;;;;;;;5096257;28;20043;-68
2022/06/21 00:33:16;;;;;;;21.85;9.30;;;;;;;;;;5096402;28;20106;-68
2022/06/21 00:35:44;;;;;;;13.77;8.02;;;;;;;;;;5096667;28;20052;-68
2022/06/21 00:38:13;;;;;;;13.05;7.40;;;;;;;;;;5096094;28;20061;-67
2022/06/21 00:40:40;;;;;;;15.97;7.90;;;;;;;;;;5096216;28;20044;-67
2022/06/21 00:43:12;;;;;;;16.08;8.02;;;;;;;;;;5096209;28;20068;-68
2022/06/21 00:45:40;;;;;;;16.88;8.07;;;;;;;;;;5096054;28;20101;-68
2022/06/21 00:48:12;;;;;;;19.92;8.80;;;;;;;;;;5095168;28;20078;-67
2022/06/21 00:50:41;;;;;;;20.70;8.13;;;;;;;;;;5095917;28;20135;-67
2022/06/21 00:53:12;;;;;;;15.27;8.25;;;;;;;;;;5095999;28;20044;-68
2022/06/21 00:55:54;;;;;;;15.57;8.45;;;;;;;;;;5095575;28;20040;-68
2022/06/21 00:58:21;;;;;;;15.00;8.85;;;;;;;;;;5095981;28;20044;-68
2022/06/21 01:00:54;;;;;;;15.60;8.10;;;;;;;;;;5095951;28;20123;-68
2022/06/21 01:03:25;;;;;;;20.98;8.85;;;;;;;;;;5095886;28;20130;-68
2022/06/21 01:05:52;;;;;;;25.27;9.00;;;;;;;;;;5096134;28;20052;-68
2022/06/21 01:08:20;;;;;;;18.25;8.52;;;;;;;;;;5095508;28;20040;-68
2022/06/21 01:10:48;;;;;;;15.50;8.80;;;;;;;;;;5095368;28;20507;-68
2022/06/21 01:13:16;;;;;;;16.02;9.13;;;;;;;;;;5095413;28;20044;-68
2022/06/21 01:15:44;;;;;;;16.70;8.85;;;;;;;;;;5095710;28;20048;-68
2022/06/21 01:18:10;;;;;;;16.38;8.75;;;;;;;;;;5095336;28;20050;-67
2022/06/21 01:20:39;;;;;;;17.02;8.75;;;;;;;;;;5095306;28;20053;-67
2022/06/21 01:23:29;;;;;;;13.27;8.95;;;;;;;;;;5095497;28;20043;-67
2022/06/21 01:25:55;;;;;;;24.30;9.13;;;;;;;;;;5095743;28;20135;-67
2022/06/21 01:28:22;;;;;;;19.42;9.10;;;;;;;;;;5096237;28;20040;-68
2022/06/21 01:30:52;;;;;;;16.45;9.13;;;;;;;;;;5095730;28;20085;-67
2022/06/21 01:33:26;;;;;;;19.90;9.55;;;;;;;;;;5095615;28;20031;-68
2022/06/21 01:35:54;;;;;;;15.23;9.18;;;;;;;;;;5095924;28;20052;-67
2022/06/21 01:38:26;;;;;;;21.08;9.38;;;;;;;;;;5095502;28;20067;-68
2022/06/21 01:40:57;;;;;;;21.45;9.13;;;;;;;;;;5095160;28;20102;-68
2022/06/21 01:43:23;;;;;;;;;;;;;;;;;;5095976;28;20047;-67
2022/06/21 01:45:53;;;;;;;16.70;9.45;;;;;;;;;;5095107;28;19919;-68
2022/06/21 01:48:24;;;;;;;20.55;10.07;;;;;;;;;;5095749;28;20055;-68
2022/06/21 01:50:52;;;;;;;18.10;9.40;;;;;;;;;;5095371;28;20043;-68
2022/06/21 01:53:20;;;;;;;15.23;8.75;;;;;;;;;;5095798;28;20493;-68
2022/06/21 01:55:51;;;;;;;18.38;9.57;;;;;;;;;;5095218;28;20046;-67
2022/06/21 01:58:19;;;;;;;18.83;9.65;;;;;;;;;;5095430;28;20044;-68
2022/06/21 02:00:49;;;;;;;21.95;9.57;;;;;;;;;;5094073;28;20047;-68
2022/06/21 02:03:18;;;;;;;18.33;9.45;;;;;;;;;;5092744;28;20032;-68
2022/06/21 02:05:47;;;;;;;18.20;9.18;;;;;;;;;;5094182;28;20089;-67
2022/06/21 02:08:15;;;;;;;20.42;9.68;;;;;;;;;;5094686;28;20044;-67
2022/06/21 02:10:44;;;;;;;17.10;9.25;;;;;;;;;;5094364;28;20078;-67
2022/06/21 02:13:18;;;;;;;14.07;9.45;;;;;;;;;;5094774;28;20123;-67
2022/06/21 02:15:50;;;;;;;18.50;9.57;;;;;;;;;;5094825;28;20113;-68
2022/06/21 02:18:16;;;;;;;19.63;9.13;;;;;;;;;;5094973;28;20036;-68
2022/06/21 02:20:43;;;;;;;18.23;9.02;;;;;;;;;;5094703;28;20383;-68
2022/06/21 02:23:13;;;;;;;18.85;10.02;;;;;;;;;;5095130;28;20067;-70
2022/06/21 02:25:40;;;;;;;15.82;9.20;;;;;;;;;;5094992;28;20056;-69
2022/06/21 02:28:07;;;;;;;20.23;9.98;;;;;;;;;;5095191;28;20490;-70
2022/06/21 02:30:36;;;;;;;20.92;10.02;;;;;;;;;;5094611;28;20036;-69
2022/06/21 02:33:03;;;;;;;15.77;9.13;;;;;;;;;;5094553;28;20519;-69
2022/06/21 02:35:41;;;;;;;17.92;9.07;;;;;;;;;;5095194;28;20052;-69
2022/06/21 02:38:11;;;;;;;18.27;9.23;;;;;;;;;;5094796;28;20092;-70
2022/06/21 02:40:44;;;;;;;22.38;9.77;;;;;;;;;;5094939;28;20043;-70
2022/06/21 02:43:15;;;;;;;17.83;9.18;;;;;;;;;;5095066;28;20048;-69
2022/06/21 02:46:01;;;;;;;21.20;9.25;;;;;;;;;;5094716;28;20062;-70
2022/06/21 02:48:30;;;;;;;12.93;8.90;;;;;;;;;;5094632;28;20114;-70
2022/06/21 02:51:05;;;;;;;16.80;9.43;;;;;;;;;;5094935;28;20127;-70
2022/06/21 02:53:31;;;;;;;16.98;8.77;;;;;;;;;;5094864;28;20060;-69
2022/06/21 02:56:00;;;;;;;13.68;8.98;;;;;;;;;;5094338;28;20513;-69
2022/06/21 02:58:32;;;;;;;15.63;8.65;;;;;;;;;;5094552;28;20036;-69
2022/06/21 03:01:00;;;;;;;15.20;9.90;;;;;;;;;;5094257;28;20054;-69
2022/06/21 03:03:28;;;;;;;15.02;9.05;;;;;;;;;;5094866;28;20085;-69
2022/06/21 03:05:56;;;;;;;18.55;8.90;;;;;;;;;;5094751;28;20097;-70
2022/06/21 03:08:23;;;;;;;16.23;8.55;;;;;;;;;;5094693;28;20036;-69
2022/06/21 03:10:50;;;;;;;20.08;8.75;;;;;;;;;;5094668;28;20043;-69
2022/06/21 03:13:16;;;;;;;15.38;9.07;;;;;;;;;;5098165;28;20478;-70
2022/06/21 03:15:44;;;;;;;19.45;8.70;;;;;;;;;;5098348;28;20076;-69
2022/06/21 03:18:12;;;;;;;18.77;8.95;;;;;;;;;;5097978;28;20047;-69
2022/06/21 03:20:38;;;;;;;20.42;9.57;;;;;;;;;;5098506;28;20126;-69
2022/06/21 03:23:06;;;;;;;18.95;9.02;;;;;;;;;;5098442;28;20043;-70
2022/06/21 03:25:32;;;;;;;17.77;9.10;;;;;;;;;;5097868;28;20130;-70
2022/06/21 03:27:59;;;;;;;18.33;9.43;;;;;;;;;;5098636;28;20048;-70
2022/06/21 03:30:30;;;;;;;19.05;10.40;;;;;;;;;;5097662;28;20032;-70
2022/06/21 03:32:58;;;;;;;18.77;9.88;;;;;;;;;;5098232;28;20097;-69
2022/06/21 03:35:25;;;;;;;23.15;10.25;;;;;;;;;;5097954;28;20059;-69
2022/06/21 03:37:52;;;;;;;17.50;9.50;;;;;;;;;;5097914;28;20471;-69
2022/06/21 03:43:11;;;;;;;19.92;9.45;;;;;;;;;;5097276;28;20043;-70
2022/06/21 03:45:40;;;;;;;24.88;9.80;;;;;;;;;;5097992;28;20127;-70
2022/06/21 03:48:14;;;;;;;18.77;9.80;;;;;;;;;;5097654;28;20483;-70
2022/06/21 03:50:49;;;;;;;18.42;10.32;;;;;;;;;;5098264;28;20043;-70
2022/06/21 03:53:18;;;;;;;20.58;9.75;;;;;;;;;;5098336;28;20119;-70
2022/06/21 03:55:50;;;;;;;13.82;9.77;;;;;;;;;;5097424;28;20055;-69
2022/06/21 03:58:37;;;;;;;17.73;9.63;;;;;;;;;;5097497;28;20367;-69
2022/06/21 04:01:10;;;;;;;17.52;9.98;;;;;;;;;;5096914;28;20115;-69
2022/06/21 04:03:38;;;;;;;22.02;10.75;;;;;;;;;;5097343;28;20044;-70
2022/06/21 04:06:04;;;;;;;16.98;10.20;;;;;;;;;;5096312;28;20093;-70
2022/06/21 04:08:40;;;;;;;20.40;9.90;;;;;;;;;;5097030;28;20047;-70
2022/06/21 04:11:15;;;;;;;21.55;11.25;;;;;;;;;;5097588;28;20040;-70
2022/06/21 04:14:05;;;;;;;19.50;10.77;;;;;;;;;;5097242;28;20048;-70
2022/06/21 04:16:37;;;;;;;27.95;11.18;;;;;;;;;;5097790;28;20043;-70
2022/06/21 04:19:08;;;;;;;18.00;10.40;;;;;;;;;;5096744;28;20051;-70
2022/06/21 04:21:34;;;;;;;;;;;;;;;;;;5098132;28;20040;-69
2022/06/21 04:24:05;;;;;;;18.40;10.68;;;;;;;;;;5096158;28;20316;-70
2022/06/21 04:26:31;;;;;;;;;;;;;;;;;;5097464;28;20083;-70
2022/06/21 04:29:04;;;;;;;17.00;9.85;;;;;;;;;;5096917;28;19908;-67
2022/06/21 04:31:35;;;;;;;22.52;11.27;;;;;;;;;;5096590;28;20394;-69
2022/06/21 04:34:11;;;;;;;21.85;10.23;;;22.10;99.90;;;;;;5097030;28;20048;-70
2022/06/21 04:36:44;;;;;;;19.25;10.05;;;21.20;99.90;;;;;;5097378;28;20043;-70
2022/06/21 04:39:37;;;;;;;22.90;11.93;;;21.30;99.90;;;;;;5094996;28;20437;-70
2022/06/21 04:42:06;;;;;;;22.00;10.50;;;22.70;99.90;;;;;;5096040;28;20043;-69
2022/06/21 04:44:44;;;;;;;20.33;10.75;;;21.50;99.90;;;;;;5095344;28;20036;-69
2022/06/21 04:47:20;;;;;;;21.92;10.35;;;20.90;99.10;;;;;;5096752;28;20035;-70
2022/06/21 04:50:28;;;;;;;20.35;10.05;;;22.50;93.60;;;;;;5095657;28;20062;-69
2022/06/21 04:53:14;;;;;;;20.60;10.45;;;21.90;99.90;;;;;;5095094;28;20513;-69
2022/06/21 04:56:07;;;;;;;18.38;9.68;;;21.90;93.50;;;;;;5096186;28;20042;-69
2022/06/21 04:58:33;;;;;;;17.15;9.45;;;22.50;95.00;;;;;;5096167;28;20115;-69
2022/06/21 05:01:29;;;;;;;14.60;8.43;;;;;;;;;;5095973;28;20090;-69
2022/06/21 05:03:46;;;;;;;21.00;9.38;;;23.10;91.00;;;;;;5095993;28;20070;-70
2022/06/21 05:06:14;;;;;;;14.73;8.73;;;;;;;;;;5095487;28;20376;-69
2022/06/21 05:08:41;;;;;;;21.75;9.38;;;23.00;85.50;;;;;;5095891;28;20119;-69
2022/06/21 05:11:10;;;;;;;18.00;8.70;;;23.50;99.90;;;;;;5095720;28;20040;-69
2022/06/21 05:13:43;;;;;;;14.27;8.30;;;23.00;99.90;;;;;;5096184;28;20036;-69
2022/06/21 05:16:23;;;;;;;18.58;8.60;;;23.60;82.50;;;;;;5096017;28;20070;-69
2022/06/21 05:18:56;;;;;;;13.35;7.80;;;23.70;94.30;;;;;;5095663;28;20036;-69
2022/06/21 05:21:33;;;;;;;21.67;8.48;;;;;;;;;;5096514;28;20039;-69
2022/06/21 05:24:00;;;;;;;14.57;7.97;;;23.70;1.00;;;;;;5095040;28;20503;-69
2022/06/21 05:26:40;;;;;;;18.45;8.02;;;23.80;1.00;;;;;;5094651;28;20047;-69
2022/06/21 05:29:17;;;;;;;14.88;7.85;;;24.00;1.00;;;;;;5093674;28;20115;-69
2022/06/21 05:31:46;;;;;;;18.98;8.73;;;24.00;1.00;;;;;;5094925;28;20066;-69
2022/06/21 05:34:30;;;;;;;14.27;8.13;;;24.20;1.00;;;;;;5094260;28;20115;-69
2022/06/21 05:37:14;;;;;;;14.52;7.68;;;24.50;1.00;;;;;;5093213;28;20067;-70
2022/06/21 05:39:47;;;;;;;14.75;7.22;;;24.50;1.00;;;;;;5093521;28;20043;-69
2022/06/21 05:42:16;;;;;;;15.18;7.70;;;24.50;1.00;;;;;;5092886;28;20521;-69
2022/06/21 05:44:50;;;;;;;17.83;8.10;;;24.30;1.00;;;;;;5094742;28;20059;-69
2022/06/21 05:47:18;;;;;;;17.33;7.75;;;23.80;1.00;;;;;;5094605;28;20036;-69
2022/06/21 05:49:44;;;;;;;16.00;8.18;;;23.60;1.00;;;;;;5095378;28;20035;-69
2022/06/21 05:52:22;;;;;;;15.52;8.60;;;23.40;1.00;;;;;;5095096;28;20047;-69
2022/06/21 05:55:00;;;;;;;15.40;8.23;;;23.30;1.00;;;;;;5095268;28;20040;-69
2022/06/21 05:57:38;;;;;;;17.52;7.60;;;23.20;1.00;;;;;;5095136;28;20036;-69
2022/06/21 06:00:06;;;;;;;18.55;8.73;;;23.10;1.00;;;;;;5094109;28;20039;-69
2022/06/21 06:02:44;;;;;;;19.15;8.27;;;23.10;1.00;;;;;;5094967;28;20123;-69
2022/06/21 06:05:17;;;;;;;17.85;8.10;;;23.00;1.00;;;;;;5094548;28;20537;-69
2022/06/21 06:07:50;;;;;;;21.00;8.27;;;23.00;1.00;;;;;;5095523;28;20085;-69
2022/06/21 06:10:17;;;;;;;25.38;8.20;;;23.00;1.00;;;;;;5093864;28;20518;-69
2022/06/21 06:12:48;;;;;;;39.47;9.98;;;22.90;1.00;;;;;;5095528;28;20176;-69
2022/06/21 06:15:38;;;;;;;24.10;9.20;;;22.80;1.00;;;;;;5094248;28;20494;-69
2022/06/21 06:18:22;;;;;;;25.35;9.23;;;22.90;1.00;;;;;;5095086;28;20483;-69
2022/06/21 06:20:55;;;;;;;21.70;8.25;;;23.00;1.00;;;;;;5093896;28;20036;-69
2022/06/21 06:23:25;;;;;;;23.65;8.25;;;23.00;1.00;;;;;;5109095;28;20131;-68
2022/06/21 06:25:58;;;;;;;21.55;8.00;;;23.10;1.00;;;;;;5094649;28;20056;-69
2022/06/21 06:28:35;;;;;;;17.63;8.68;;;23.10;1.00;;;;;;5093284;28;20076;-69
2022/06/21 06:31:11;;;;;;;18.08;7.82;;;23.10;1.00;;;;;;5094033;28;20036;-69
2022/06/21 06:33:49;;;;;;;15.07;7.82;;;23.20;1.00;;;;;;5094474;28;20112;-69
2022/06/21 06:36:27;;;;;;;13.48;7.95;;;23.30;1.00;;;;;;5093573;28;20100;-69
2022/06/21 06:38:53;;;;;;;16.67;7.80;;;23.30;1.00;;;;;;5092545;28;20046;-69
2022/06/21 06:41:32;;;;;;;14.85;8.07;;;23.80;1.00;;;;;;5088893;28;20072;-69
2022/06/21 06:44:05;;;;;;;14.40;7.93;;;23.40;1.00;;;;;;5093597;28;20117;-69
2022/06/21 06:46:37;;;;;;;17.67;7.90;;;23.40;1.00;;;;;;5094957;28;20519;-69
2022/06/21 06:49:34;;;;;;;15.88;7.13;;;23.40;1.00;;;;;;5098271;28;20128;-69
2022/06/21 06:52:15;;;;;;;18.60;7.32;;;23.90;1.00;;;;;;5096275;28;20028;-69
2022/06/21 06:55:08;;;;;;;14.48;7.93;;;23.70;1.00;;;;;;5097476;28;20051;-70
2022/06/21 06:57:40;;;;;;;20.48;7.30;;;24.00;1.00;;;;;;5097647;28;20120;-69
2022/06/21 07:00:20;;;;;;;18.30;7.05;;;24.10;1.00;;;;;;5098153;28;20088;-69
2022/06/21 07:03:11;;;;;;;15.30;6.43;;;24.30;1.00;;;;;;5096325;28;20036;-69
2022/06/21 07:05:51;;;;;;;16.23;7.03;;;24.30;1.00;;;;;;5093390;28;20135;-69
2022/06/21 07:08:27;;;;;;;15.75;7.00;;;24.10;1.00;;;;;;5098174;28;20063;-69
2022/06/21 07:10:54;;;;;;;14.27;7.53;;;24.10;1.00;;;;;;5097902;28;20070;-70
2022/06/21 07:13:20;;;;;;;15.93;6.53;;;24.20;1.00;;;;;;5098005;28;20503;-71
2022/06/21 07:15:48;;;;;;;14.57;6.97;;;24.60;1.00;;;;;;5077527;28;20526;-69
2022/06/21 07:18:27;;;;;;;14.05;6.50;;;24.90;1.00;;;;;;5097001;28;20518;-69
2022/06/21 07:20:54;;;;;;;17.35;6.22;;;24.90;1.00;;;;;;5093477;28;20074;-69
2022/06/21 07:23:22;;;;;;;14.18;7.05;;;25.30;1.00;;;;;;5097619;28;20555;-69
2022/06/21 07:26:09;;;;;;;22.05;6.82;;;24.90;1.00;;;;;;5100062;28;20172;-69
2022/06/21 07:28:51;;;;;;;14.15;6.82;;;25.20;1.00;;;;;;5098966;28;20044;-69
2022/06/21 07:31:25;;;;;;;15.00;6.72;;;24.90;1.00;;;;;;5098281;28;20040;-70
2022/06/21 07:34:09;;;;;;;15.02;7.47;;;25.00;1.00;;;;;;5097811;28;20031;-70
2022/06/21 07:37:01;;;;;;;16.02;6.63;;;24.90;1.00;;;;;;5097934;28;20130;-69
2022/06/21 07:39:45;;;;;;;14.75;6.35;;;25.10;1.00;;;;;;5097842;28;20112;-70
2022/06/21 07:42:18;;;;;;;13.98;6.35;;;25.40;1.00;;;;;;5098331;28;20062;-70
2022/06/21 07:45:06;;;;;;;11.23;6.50;;;25.80;1.00;;;;;;5096076;28;20576;-70
2022/06/21 07:47:41;;;;;;;18.73;6.57;;;26.10;1.00;;;;;;5092260;28;20036;-70
2022/06/21 07:50:25;;;;;;;15.95;6.95;;;25.80;1.00;;;;;;5096556;28;20036;-70
2022/06/21 07:52:59;;;;;;;15.73;6.20;;;26.00;1.00;;;;;;5096577;28;20047;-70
2022/06/21 07:55:40;;;;;;;17.08;6.40;;;26.10;1.00;;;;;;5085959;28;20084;-69
2022/06/21 07:58:08;;;;;;;;;;;26.30;1.00;;;;;;5097086;28;20043;-68
2022/06/21 08:09:22;;;;;;;12.68;7.65;;;25.80;1.00;;;;;;5095308;28;20426;-69
2022/06/21 08:11:50;;;;;;;14.25;6.43;;;25.30;1.00;;;;;;5095906;28;20028;-68
2022/06/21 08:14:17;;;;;;;12.15;6.55;;;25.00;1.00;;;;;;5096865;28;20501;-68
2022/06/21 08:16:53;;;;;;;14.48;6.50;;;24.80;1.00;;;;;;5097100;28;20036;-68
2022/06/21 08:19:36;;;;;;;14.25;6.93;;;24.80;1.00;;;;;;5097114;28;20040;-68
2022/06/21 08:22:10;;;;;;;15.05;6.63;;;24.50;1.00;;;;;;5092976;28;20119;-68
2022/06/21 08:25:05;;;;;;;16.45;7.57;;;24.50;1.00;;;;;;5094956;28;20093;-71
2022/06/21 08:28:09;;;;;;;16.13;7.07;;;24.50;1.00;;;;;;5087613;28;20043;-68
2022/06/21 08:30:54;;;;;;;19.98;7.75;;;24.50;1.00;;;;;;5091064;28;20032;-71
2022/06/21 08:33:37;;;;;;;14.93;6.88;;;24.40;1.00;;;;;;5096464;28;20036;-71
2022/06/21 08:36:10;;;;;;;16.75;6.75;;;24.40;1.00;;;;;;5096441;28;20367;-70
2022/06/21 08:38:46;;;;;;;16.20;6.70;;;24.50;1.00;;;;;;5095312;28;20040;-70
2022/06/21 08:44:30;;;;;;;16.73;8.45;;;24.70;1.00;;;;;;5096100;28;20135;-70
2022/06/21 08:47:07;;;;;;;11.65;6.15;;;24.70;1.00;;;;;;5097321;28;20143;-70
2022/06/21 08:50:01;;;;;;;11.98;6.47;;;24.60;1.00;;;;;;5096684;28;20032;-70
2022/06/21 08:52:53;;;;;;;14.52;6.88;;;24.70;1.00;;;;;;5096201;28;20471;-70
2022/06/21 08:55:37;;;;;;;15.05;7.07;;;25.00;1.00;;;;;;5096266;28;20040;-70
2022/06/21 08:58:28;;;;;;;14.45;6.40;;;25.30;1.00;;;;;;5096696;28;20066;-70
2022/06/21 09:01:08;;;;;;;18.70;6.72;;;25.20;1.00;;;;;;5096462;28;20032;-70
2022/06/21 09:04:02;;;;;;;14.73;6.88;;;25.80;1.00;;;;;;5096289;28;20039;-71
2022/06/21 09:07:09;;;;;;;15.45;7.53;;;26.00;1.00;;;;;;5096451;28;20036;-71
2022/06/21 09:09:35;;;;;;;12.70;6.88;;;26.00;1.00;;;;;;5090599;28;20047;-71
2022/06/21 09:12:36;;;;;;;22.33;7.57;;;25.70;1.00;;;;;;5095772;28;20390;-70
2022/06/21 09:15:14;;;;;;;18.70;7.40;;;25.90;1.00;;;;;;5073189;28;20040;-68
2022/06/21 09:17:42;;;;;;;15.80;6.65;;;26.20;1.00;;;;;;5093425;28;20532;-70
2022/06/21 09:20:32;;;;;;;14.18;6.80;;;26.70;1.00;;;;;;5095645;28;20119;-69
2022/06/21 09:23:16;;;;;;;16.58;7.15;;;26.80;1.00;;;;;;5096129;28;20089;-69
2022/06/21 09:25:48;;;;;;;18.10;7.32;;;26.00;1.00;;;;;;5095342;28;20402;-69
2022/06/21 09:28:45;;;;;;;15.80;6.78;;;25.40;1.00;;;;;;5095767;28;20136;-69
2022/06/21 09:31:36;;;;;;;19.90;8.00;;;25.20;1.00;;;;;;5096061;28;20146;-68
2022/06/21 09:34:06;;;;;;;17.27;6.70;;;25.60;1.00;;;;;;5095570;28;20559;-69
2022/06/21 09:36:56;;;;;;;14.00;6.90;;;25.90;1.00;;;;;;5095615;28;20135;-68
2022/06/21 09:39:37;;;;;;;16.38;7.28;;;25.90;1.00;;;;;;5093917;28;20040;-69
2022/06/21 09:42:27;;;;;;;17.48;7.47;;;26.10;1.00;;;;;;5095271;28;20556;-69
2022/06/21 09:45:10;;;;;;;18.15;6.82;;;26.20;1.00;;;;;;5094749;28;21590;-69
2022/06/21 09:48:03;;;;;;;15.50;7.70;;;26.60;1.00;;;;;;5093861;28;20051;-69
2022/06/21 09:50:36;;;;;;;19.55;7.80;;;27.00;1.00;;;;;;5086341;28;20028;-70
2022/06/21 09:53:23;;;;;;;19.52;7.45;;;27.00;1.00;;;;;;5093615;28;20398;-69
2022/06/21 09:56:02;;;;;;;15.30;7.50;;;26.70;1.00;;;;;;5074692;28;20040;-70
2022/06/21 09:58:46;;;;;;;17.05;7.60;;;26.90;1.00;;;;;;5081637;28;20032;-70
2022/06/21 10:01:22;;;;;;;15.35;7.47;;;26.90;1.00;;;;;;5072746;28;20085;-70
2022/06/21 10:04:10;;;;;;;12.10;7.28;;;27.10;1.00;;;;;;5073464;28;20072;-70
2022/06/21 10:06:51;;;;;;;13.15;6.85;;;27.20;1.00;;;;;;5073052;28;20059;-69
2022/06/21 10:09:34;;;;;;;13.13;6.13;;;27.30;1.00;;;;;;5090274;28;20391;-70
2022/06/21 10:12:25;;;;;;;17.48;7.22;;;27.30;1.00;;;;;;5074465;28;20055;-70
2022/06/21 10:15:06;;;;;;;17.45;7.55;;;27.00;1.00;;;;;;5078022;28;20055;-70
2022/06/21 10:17:57;;;;;;;15.63;7.00;;;26.70;1.00;;;;;;5094667;28;20394;-69
2022/06/21 10:20:26;;;;;;;;;;;26.40;1.00;;;;;;5094681;28;20085;-70
2022/06/21 10:23:07;;;;;;;15.45;7.10;;;26.20;1.00;;;;;;5093460;28;20032;-70
2022/06/21 10:25:51;;;;;;;15.30;7.53;;;26.00;1.00;;;;;;5092565;28;20063;-71
2022/06/21 10:28:31;;;;;;;14.50;6.50;;;26.20;1.00;;;;;;5094382;28;20399;-71
2022/06/21 10:31:27;;;;;;;17.48;7.35;;;26.40;1.00;;;;;;5094431;28;20036;-71
2022/06/21 10:34:25;;;;;;;17.40;7.88;;;26.70;1.00;;;;;;5086763;28;20036;-70
2022/06/21 10:37:11;;;;;;;15.45;7.57;;;26.40;1.00;;;;;;5093633;28;20059;-70
2022/06/21 10:39:51;;;;;;;13.07;7.55;;;26.30;1.00;;;;;;5075339;28;20040;-70
2022/06/21 10:45:11;;;;;;;13.07;7.72;;;26.40;1.00;;;;;;5094209;28;20085;-70
2022/06/21 10:48:08;;;;;;;15.27;7.93;;;26.50;1.00;;;;;;5093979;28;20036;-70
2022/06/21 10:50:55;;;;;;;18.40;8.05;;;26.50;1.00;;;;;;5095043;28;20097;-70
2022/06/21 10:53:53;;;;;;;19.00;7.93;;;26.50;1.00;;;;;;5094889;28;20035;-70
2022/06/21 11:01:16;;;;;;;20.67;7.70;;;26.60;1.00;;;;;;5092563;28;20035;-71
2022/06/21 11:02:42;;;;;;;13.88;7.28;;;26.90;1.00;;;;;;5093682;28;20032;-71
2022/06/21 11:05:29;;;;;;;13.70;7.50;;;26.70;1.00;;;;;;5093766;28;20044;-70
2022/06/21 11:08:23;;;;;;;14.02;7.32;;;26.60;1.00;;;;;;5094267;28;20036;-70
2022/06/21 11:11:15;;;;;;;17.73;7.90;;;26.50;1.00;;;;;;5093767;28;20032;-70
2022/06/21 11:13:45;;;;;;;17.90;9.18;;;26.40;1.00;;;;;;5092980;28;20111;-70
2022/06/21 11:16:25;;;;;;;16.30;8.98;;;26.10;1.00;;;;;;5093977;28;20032;-70
2022/06/21 11:19:07;;;;;;;15.38;8.25;;;26.10;1.00;;;;;;5093576;28;20101;-70
2022/06/21 11:21:58;;;;;;;11.93;7.07;;;25.90;1.00;;;;;;5094495;28;20056;-70
2022/06/21 11:24:45;;;;;;;18.40;7.40;;;25.70;1.00;;;;;;5093886;28;20044;-70
2022/06/21 11:28:00;;;;;;;15.65;6.80;;;25.70;1.00;;;;;;5094388;28;20048;-70
2022/06/21 11:31:16;;;;;;;15.30;7.43;;;25.50;1.00;;;;;;5092485;28;20040;-70
2022/06/21 11:34:09;;;;;;;18.00;7.63;;;25.60;1.00;;;;;;5083965;28;20089;-70
2022/06/21 11:37:06;;;;;;;15.27;7.85;;;25.70;1.00;;;;;;5077823;28;20132;-71
2022/06/21 11:39:46;;;;;;;14.98;8.05;;;25.70;1.00;;;;;;5076759;28;20028;-71
2022/06/21 11:42:40;;;;;;;16.10;7.97;;;25.70;1.00;;;;;;5077452;28;20036;-71
2022/06/21 11:45:25;;;;;;;16.23;8.05;;;25.70;1.00;;;;;;5096135;28;20175;-72
2022/06/21 11:48:06;;;;;;;20.52;7.80;;;25.60;1.00;;;;;;5096676;28;20043;-70
2022/06/21 11:50:54;;;;;;;16.67;7.88;;;25.50;1.00;;;;;;5097011;28;20028;-70
2022/06/21 11:53:29;;;;;;;15.65;7.75;;;25.60;1.00;;;;;;5086296;28;20039;-71
2022/06/21 11:56:30;;;;;;;17.92;7.07;;;25.60;1.00;;;;;;5097030;28;20036;-70
2022/06/21 11:59:16;;;;;;;20.42;8.02;;;25.70;1.00;;;;;;5096506;28;20406;-70
2022/06/21 12:01:59;;;;;;;18.27;7.68;;;25.60;1.00;;;;;;5095259;28;20074;-70
2022/06/21 12:04:42;;;;;;;15.25;7.70;;;25.60;1.00;;;;;;5097099;28;20048;-70
2022/06/21 12:07:32;;;;;;;16.88;6.78;;;25.80;1.00;;;;;;5096489;28;20044;-70
2022/06/21 12:10:02;;;;;;;17.50;7.78;;;25.90;1.00;;;;;;5097190;28;20064;-70
2022/06/21 12:13:05;;;;;;;15.85;7.45;;;26.30;1.00;;;;;;5096659;28;20040;-70
2022/06/21 12:15:56;;;;;;;15.88;7.28;;;26.50;1.00;;;;;;5096988;28;20042;-70
2022/06/21 12:18:27;;;;;;;;;;;26.50;1.00;;;;;;5095563;28;20064;-70
2022/06/21 12:21:06;;;;;;;18.02;7.20;;;26.90;1.00;;;;;;5097386;28;19908;-70
2022/06/21 12:23:41;;;;;;;16.25;6.85;;;27.40;1.00;;;;;;5096132;28;20032;-70
2022/06/21 12:26:10;;;;;;;15.18;6.70;;;27.90;1.00;;;;;;5096672;28;20048;-70
2022/06/21 12:28:38;;;;;;;14.50;7.30;;;27.80;1.00;;;;;;5096955;28;20070;-70
2022/06/21 12:31:34;;;;;;;14.73;6.47;;;27.60;1.00;;;;;;5095922;28;20036;-70
2022/06/21 12:34:18;;;;;;;16.92;6.50;;;27.30;1.00;;;;;;5091202;28;20068;-71
2022/06/21 12:37:01;;;;;;;18.40;7.03;;;27.20;1.00;;;;;;5096474;28;20035;-70
2022/06/21 12:39:46;;;;;;;15.63;6.68;;;27.20;1.00;;;;;;5095303;28;20090;-70
2022/06/21 12:42:21;;;;;;;14.07;6.47;;;27.60;1.00;;;;;;5094644;28;20556;-70
2022/06/21 12:45:13;;;;;;;13.60;6.50;;;28.30;1.00;;;;;;5095743;28;20036;-70
2022/06/21 12:47:48;;;;;;;16.73;6.57;;;28.70;1.00;;;;;;5095339;28;20514;-70
2022/06/21 12:50:47;;;;;;;15.60;6.38;;;29.00;1.00;;;;;;5093897;28;20048;-70
2022/06/21 12:53:31;;;;;;;11.85;6.05;;;28.80;1.00;;;;;;5094093;28;20186;-70
2022/06/21 12:56:31;;;;;;;15.30;5.70;;;28.30;1.00;;;;;;5094130;28;20031;-70
2022/06/21 12:59:25;;;;;;;20.10;6.30;;;28.60;1.00;;;;;;5096346;28;20156;-70
2022/06/21 13:02:32;;;;;;;14.27;5.93;;;29.30;1.00;;;;;;5095783;28;20058;-70
2022/06/21 13:05:01;;;;;;;13.30;6.00;;;29.50;1.00;;;;;;5095837;28;20047;-70
2022/06/21 13:07:58;;;;;;;18.00;6.70;;;29.60;1.00;;;;;;5096082;28;20067;-71
2022/06/21 13:10:36;;;;;;;17.33;6.75;;;29.50;1.00;;;;;;5095739;28;20040;-70
2022/06/21 13:13:08;;;;;;;19.42;6.18;;;29.60;1.00;;;;;;5095860;28;20032;-70
2022/06/21 13:15:37;;;;;;;19.27;6.30;;;30.00;1.00;;;;;;5095800;28;20036;-70
2022/06/21 13:18:21;;;;;;;13.98;6.30;;;30.00;1.00;;;;;;5095394;28;20064;-71
2022/06/21 13:21:04;;;;;;;15.38;6.75;;;29.80;1.00;;;;;;5095441;28;20038;-71
2022/06/21 13:23:52;;;;;;;15.43;6.47;;;29.90;1.00;;;;;;5095291;28;20460;-70
2022/06/21 13:26:42;;;;;;;17.45;6.22;;;29.90;1.00;;;;;;5093352;28;20575;-71
2022/06/21 13:29:45;;;;;;;12.20;5.78;;;30.20;1.00;;;;;;5092395;28;20044;-71
2022/06/21 13:32:33;;;;;;;17.77;6.55;;;30.00;1.00;;;;;;5095541;28;20044;-70
2022/06/21 13:35:27;;;;;;;12.63;5.72;;;29.20;1.00;;;;;;5091689;28;20071;-70
2022/06/21 13:38:11;;;;;;;17.08;5.95;;;29.00;1.00;;;;;;5095026;28;20460;-70
2022/06/21 13:40:43;;;;;;;14.15;6.28;;;29.10;1.00;;;;;;5094949;28;20368;-70
2022/06/21 13:43:14;;;;;;;16.35;6.72;;;28.90;1.00;;;;;;5094503;28;20040;-70
2022/06/21 13:46:11;;;;;;;18.27;6.40;;;28.40;1.00;;;;;;5092318;28;20183;-70
2022/06/21 13:48:49;;;;;;;17.23;6.97;;;28.00;1.00;;;;;;5092200;28;20494;-70
2022/06/21 13:51:15;;;;;;;23.17;6.75;;;27.90;1.00;;;;;;5094577;28;20048;-70
2022/06/21 13:54:03;;;;;;;15.75;5.75;;;28.00;1.00;;;;;;5093302;28;20509;-71
2022/06/21 13:57:08;;;;;;;19.48;6.47;;;27.80;1.00;;;;;;5093424;28;20077;-70
2022/06/21 13:59:45;;;;;;;18.25;6.20;;;28.00;1.00;;;;;;5093429;28;20040;-70
2022/06/21 14:02:26;;;;;;;18.13;6.15;;;28.00;1.00;;;;;;5092999;28;20043;-71
2022/06/21 14:04:58;;;;;;;22.33;7.05;;;28.00;1.00;;;;;;5073301;28;20067;-70
2022/06/21 14:07:34;;;;;;;17.02;6.38;;;27.90;1.00;;;;;;5087802;28;20044;-71
2022/06/21 14:10:03;;;;;;;17.98;6.40;;;28.00;1.00;;;;;;5094465;28;20028;-70
2022/06/21 14:13:05;;;;;;;18.08;6.43;;;28.00;1.00;;;;;;5094199;28;20378;-70
2022/06/21 14:16:02;;;;;;;16.05;6.20;;;28.30;1.00;;;;;;5093073;28;20402;-70
2022/06/21 14:18:43;;;;;;;12.40;5.70;;;28.00;1.00;;;;;;5094020;28;20036;-70
2022/06/21 14:21:33;;;;;;;19.17;5.72;;;28.00;1.00;;;;;;5094239;28;20035;-70
2022/06/21 14:24:23;;;;;;;18.42;5.80;;;28.00;1.00;;;;;;5092199;28;20463;-70
2022/06/21 14:27:29;;;;;;;14.83;6.20;;;27.80;1.00;;;;;;5092678;28;20613;-70
2022/06/21 14:30:24;;;;;;;19.63;6.03;;;27.80;1.00;;;;;;5091847;28;20277;-70
2022/06/21 14:32:56;;;;;;;15.15;5.95;;;27.60;1.00;;;;;;5092012;28;20591;-70
2022/06/21 14:39:12;;;;;;;16.00;6.43;;;27.30;1.00;;;;;;5083602;28;20027;-70
2022/06/21 14:41:58;;;;;;;20.10;6.80;;;27.30;1.00;;;;;;5094123;28;20486;-70